createdAt,value
2023-02-01T00:02:11.222Z,100.00
2023-02-01T00:04:58.000Z,100.00
2023-02-01T00:08:03.582Z,100.00
2023-02-01T00:10:49.913Z,100.00
2023-02-01T00:13:39.073Z,100.00
2023-02-01T00:16:29.126Z,100.00
2023-02-01T00:19:16.341Z,100.00
2023-02-01T00:22:02.759Z,100.00
2023-02-01T00:24:49.194Z,100.00
2023-02-01T00:27:35.761Z,100.00
2023-02-01T00:30:22.832Z,100.00
2023-02-01T00:33:37.825Z,100.00
2023-02-01T00:36:24.207Z,100.00
2023-02-01T00:39:11.464Z,100.00
2023-02-01T00:41:57.951Z,100.00
2023-02-01T00:44:44.308Z,100.00
2023-02-01T00:47:31.516Z,100.00
2023-02-01T00:50:18.100Z,99.55
2023-02-01T00:53:04.575Z,97.95
2023-02-01T00:55:51.189Z,96.91
2023-02-01T00:58:38.273Z,96.35
2023-02-01T01:02:38.822Z,96.28
2023-02-01T01:06:34.931Z,96.05
2023-02-01T01:10:32.677Z,96.44
2023-02-01T01:13:18.999Z,96.57
2023-02-01T01:16:14.896Z,95.97
2023-02-01T01:19:02.128Z,95.89
2023-02-01T01:21:48.643Z,95.53
2023-02-01T01:25:47.355Z,95.27
2023-02-01T01:29:56.016Z,95.07
2023-02-01T01:33:22.748Z,95.15
2023-02-01T01:37:21.848Z,95.75
2023-02-01T01:41:35.842Z,95.46
2023-02-01T01:44:58.542Z,95.09
2023-02-01T01:47:54.923Z,94.85
2023-02-01T01:51:11.328Z,94.24
2023-02-01T01:54:02.283Z,93.70
2023-02-01T01:57:19.829Z,93.42
2023-02-01T02:00:12.390Z,93.18
2023-02-01T02:03:03.790Z,92.77
2023-02-01T02:05:50.399Z,91.92
2023-02-01T02:08:36.438Z,91.68
2023-02-01T02:11:21.660Z,91.72
2023-02-01T02:14:10.142Z,91.48
2023-02-01T02:17:11.327Z,91.59
2023-02-01T02:20:27.107Z,90.84
2023-02-01T02:23:42.244Z,90.89
2023-02-01T02:26:36.367Z,90.07
2023-02-01T02:30:20.021Z,89.79
2023-02-01T02:33:32.971Z,89.93
2023-02-01T02:36:20.679Z,90.16
2023-02-01T02:39:24.011Z,89.97
2023-02-01T02:42:33.226Z,89.94
2023-02-01T02:45:43.551Z,89.34
2023-02-01T02:48:42.676Z,88.47
2023-02-01T02:52:22.950Z,88.46
2023-02-01T02:55:09.161Z,88.68
2023-02-01T02:58:15.202Z,88.67
2023-02-01T03:01:20.959Z,88.55
2023-02-01T03:04:09.633Z,88.67
2023-02-01T03:06:55.155Z,88.19
2023-02-01T03:09:48.059Z,88.55
2023-02-01T03:12:56.004Z,88.26
2023-02-01T03:16:07.413Z,88.69
2023-02-01T03:19:04.064Z,88.54
2023-02-01T03:21:56.265Z,88.77
2023-02-01T03:24:48.472Z,89.16
2023-02-01T03:27:38.711Z,89.12
2023-02-01T03:30:32.132Z,88.51
2023-02-01T03:33:21.840Z,88.68
2023-02-01T03:36:23.048Z,88.68
2023-02-01T03:39:25.188Z,89.01
2023-02-01T03:42:20.829Z,90.18
2023-02-01T03:45:10.546Z,91.45
2023-02-01T03:48:00.506Z,92.74
2023-02-01T03:50:50.541Z,92.93
2023-02-01T03:53:37.793Z,93.46
2023-02-01T03:56:25.803Z,93.90
2023-02-01T03:59:12.649Z,93.70
2023-02-01T04:01:57.543Z,93.81
2023-02-01T04:04:42.796Z,93.70
2023-02-01T04:07:27.815Z,93.91
2023-02-01T04:10:13.606Z,93.86
2023-02-01T04:13:28.321Z,94.06
2023-02-01T04:16:13.526Z,94.50
2023-02-01T04:18:59.097Z,94.69
2023-02-01T04:21:47.442Z,95.40
2023-02-01T04:24:32.592Z,95.33
2023-02-01T04:27:19.383Z,94.70
2023-02-01T04:30:09.919Z,94.57
2023-02-01T04:32:55.122Z,93.58
2023-02-01T04:35:40.701Z,93.02
2023-02-01T04:38:27.231Z,92.64
2023-02-01T04:41:12.137Z,92.20
2023-02-01T04:43:57.314Z,91.45
2023-02-01T04:46:43.297Z,90.85
2023-02-01T04:49:28.311Z,90.87
2023-02-01T04:52:13.603Z,90.14
2023-02-01T04:55:00.470Z,89.89
2023-02-01T04:57:45.661Z,89.80
2023-02-01T05:00:33.374Z,89.00
2023-02-01T05:03:18.800Z,89.07
2023-02-01T05:06:05.277Z,89.08
2023-02-01T05:08:50.363Z,88.74
2023-02-01T05:11:54.109Z,88.55
2023-02-01T05:14:39.057Z,88.25
2023-02-01T05:17:24.291Z,88.12
2023-02-01T05:20:09.909Z,88.09
2023-02-01T05:22:55.260Z,88.19
2023-02-01T05:25:40.352Z,87.71
2023-02-01T05:28:25.558Z,87.56
2023-02-01T05:31:11.871Z,87.21
2023-02-01T05:33:56.912Z,86.89
2023-02-01T05:36:42.367Z,87.01
2023-02-01T05:39:30.262Z,87.00
2023-02-01T05:42:16.511Z,87.03
2023-02-01T05:45:03.011Z,87.08
2023-02-01T05:47:48.406Z,87.12
2023-02-01T05:51:53.321Z,86.68
2023-02-01T05:55:10.537Z,86.63
2023-02-01T05:59:10.453Z,86.53
2023-02-01T06:01:57.200Z,87.02
2023-02-01T06:04:44.397Z,87.25
2023-02-01T06:07:31.131Z,86.94
2023-02-01T06:10:19.028Z,86.47
2023-02-01T06:13:06.644Z,86.41
2023-02-01T06:15:53.441Z,86.67
2023-02-01T06:18:40.362Z,86.54
2023-02-01T06:21:26.917Z,87.04
2023-02-01T06:24:13.944Z,87.02
2023-02-01T06:27:00.655Z,86.79
2023-02-01T06:29:47.264Z,86.96
2023-02-01T06:32:34.299Z,87.12
2023-02-01T06:35:21.087Z,86.41
2023-02-01T06:38:07.513Z,86.55
2023-02-01T06:40:55.609Z,86.33
2023-02-01T06:43:41.909Z,86.16
2023-02-01T06:46:28.257Z,86.21
2023-02-01T06:49:14.677Z,86.00
2023-02-01T06:52:01.299Z,85.88
2023-02-01T06:55:05.011Z,86.48
2023-02-01T06:59:18.788Z,86.57
2023-02-01T07:02:39.169Z,86.54
2023-02-01T07:06:38.909Z,86.92
2023-02-01T07:10:35.636Z,86.88
2023-02-01T07:13:23.180Z,87.43
2023-02-01T07:16:12.894Z,87.33
2023-02-01T07:19:00.676Z,87.19
2023-02-01T07:21:47.169Z,87.24
2023-02-01T07:24:34.955Z,87.47
2023-02-01T07:27:52.013Z,86.99
2023-02-01T07:31:16.701Z,87.28
2023-02-01T07:35:15.161Z,86.82
2023-02-01T07:38:01.422Z,86.63
2023-02-01T07:40:47.751Z,86.68
2023-02-01T07:43:37.034Z,86.62
2023-02-01T07:46:23.727Z,87.26
2023-02-01T07:49:11.314Z,87.49
2023-02-01T07:51:57.658Z,87.71
2023-02-01T07:54:44.549Z,87.85
2023-02-01T07:57:31.012Z,88.21
2023-02-01T08:00:36.703Z,88.16
2023-02-01T08:03:35.720Z,87.06
2023-02-01T08:07:50.523Z,88.36
2023-02-01T08:11:03.966Z,88.62
2023-02-01T08:13:49.525Z,89.47
2023-02-01T08:16:36.785Z,89.85
2023-02-01T08:21:37.495Z,89.43
2023-02-01T08:25:36.167Z,89.68
2023-02-01T08:29:36.613Z,89.38
2023-02-01T08:32:23.147Z,89.73
2023-02-01T08:35:10.130Z,89.47
2023-02-01T08:37:56.911Z,89.03
2023-02-01T08:40:48.854Z,89.09
2023-02-01T08:43:35.256Z,89.25
2023-02-01T08:46:33.132Z,89.39
2023-02-01T08:50:28.477Z,89.00
2023-02-01T08:54:23.339Z,89.39
2023-02-01T08:58:18.969Z,90.01
2023-02-01T09:02:18.247Z,91.14
2023-02-01T09:06:17.545Z,92.08
2023-02-01T09:10:35.691Z,91.52
2023-02-01T09:13:50.520Z,90.28
2023-02-01T09:17:50.024Z,89.46
2023-02-01T09:21:45.052Z,89.17
2023-02-01T09:25:42.195Z,86.66
2023-02-01T09:28:28.834Z,85.76
2023-02-01T09:31:15.852Z,85.69
2023-02-01T09:34:04.065Z,84.50
2023-02-01T09:36:50.545Z,83.52
2023-02-01T09:39:37.065Z,83.43
2023-02-01T09:43:17.787Z,83.03
2023-02-01T09:46:27.146Z,82.33
2023-02-01T09:50:38.404Z,81.87
2023-02-01T09:54:13.130Z,80.73
2023-02-01T09:57:08.205Z,80.80
2023-02-01T10:00:07.369Z,80.17
2023-02-01T10:02:56.198Z,79.48
2023-02-01T10:06:07.519Z,79.30
2023-02-01T10:09:21.945Z,78.97
2023-02-01T10:12:17.195Z,79.31
2023-02-01T10:15:18.606Z,80.02
2023-02-01T10:18:18.391Z,78.99
2023-02-01T10:21:43.163Z,79.29
2023-02-01T10:24:41.076Z,79.21
2023-02-01T10:27:44.775Z,78.86
2023-02-01T10:30:43.105Z,78.81
2023-02-01T10:33:43.435Z,79.12
2023-02-01T10:36:39.348Z,79.89
2023-02-01T10:39:25.951Z,79.42
2023-02-01T10:42:13.437Z,79.46
2023-02-01T10:45:02.979Z,80.19
2023-02-01T10:47:51.966Z,80.43
2023-02-01T10:50:41.515Z,79.47
2023-02-01T10:53:32.857Z,79.49
2023-02-01T10:56:25.578Z,78.66
2023-02-01T10:59:21.590Z,78.42
2023-02-01T11:02:21.787Z,78.29
2023-02-01T11:05:17.224Z,77.71
2023-02-01T11:08:03.869Z,78.12
2023-02-01T11:11:02.402Z,77.83
2023-02-01T11:14:11.968Z,77.12
2023-02-01T11:17:01.331Z,76.35
2023-02-01T11:19:57.137Z,76.17
2023-02-01T11:22:49.433Z,77.05
2023-02-01T11:25:37.411Z,77.94
2023-02-01T11:28:32.230Z,77.60
2023-02-01T11:31:19.924Z,77.82
2023-02-01T11:34:31.599Z,78.11
2023-02-01T11:37:22.182Z,78.46
2023-02-01T11:40:30.061Z,78.67
2023-02-01T11:43:29.377Z,79.25
2023-02-01T11:46:25.875Z,79.27
2023-02-01T11:49:28.449Z,79.55
2023-02-01T11:52:39.580Z,79.22
2023-02-01T11:55:58.509Z,79.43
2023-02-01T11:59:11.062Z,79.41
2023-02-01T12:02:16.844Z,79.60
2023-02-01T12:05:17.660Z,79.16
2023-02-01T12:08:21.474Z,79.10
2023-02-01T12:11:58.945Z,79.04
2023-02-01T12:14:48.183Z,79.13
2023-02-01T12:17:49.434Z,81.13
2023-02-01T12:20:58.237Z,81.65
2023-02-01T12:24:09.736Z,82.17
2023-02-01T12:27:14.886Z,82.67
2023-02-01T12:30:12.723Z,83.04
2023-02-01T12:33:26.131Z,82.89
2023-02-01T12:37:14.568Z,82.57
2023-02-01T12:40:36.318Z,81.78
2023-02-01T12:43:40.718Z,81.46
2023-02-01T12:46:34.192Z,80.51
2023-02-01T12:49:28.533Z,81.31
2023-02-01T12:52:21.250Z,81.28
2023-02-01T12:55:29.508Z,80.94
2023-02-01T12:58:55.780Z,81.29
2023-02-01T13:01:51.978Z,81.27
2023-02-01T13:04:52.255Z,81.39
2023-02-01T13:08:01.283Z,81.32
2023-02-01T13:10:56.671Z,81.30
2023-02-01T13:14:14.069Z,80.96
2023-02-01T13:17:05.130Z,81.10
2023-02-01T13:20:06.618Z,81.24
2023-02-01T13:23:04.985Z,80.84
2023-02-01T13:25:53.381Z,80.94
2023-02-01T13:29:07.010Z,80.02
2023-02-01T13:32:57.071Z,80.09
2023-02-01T13:36:16.761Z,80.67
2023-02-01T13:39:31.528Z,81.13
2023-02-01T13:42:29.941Z,81.12
2023-02-01T13:45:23.586Z,81.63
2023-02-01T13:48:21.973Z,81.89
2023-02-01T13:51:08.967Z,81.75
2023-02-01T13:53:55.603Z,81.93
2023-02-01T13:56:44.789Z,81.83
2023-02-01T13:59:49.136Z,81.35
2023-02-01T14:02:41.870Z,81.56
2023-02-01T14:05:28.512Z,81.75
2023-02-01T14:08:24.232Z,81.87
2023-02-01T14:11:36.582Z,82.39
2023-02-01T14:14:24.702Z,82.72
2023-02-01T14:17:11.382Z,82.87
2023-02-01T14:20:36.222Z,82.95
2023-02-01T14:23:25.417Z,83.31
2023-02-01T14:26:16.198Z,82.42
2023-02-01T14:29:21.362Z,80.50
2023-02-01T14:32:17.734Z,78.49
2023-02-01T14:35:25.763Z,79.75
2023-02-01T14:38:13.359Z,81.39
2023-02-01T14:41:33.789Z,82.20
2023-02-01T14:44:27.744Z,82.88
2023-02-01T14:47:23.975Z,82.73
2023-02-01T14:50:11.225Z,81.87
2023-02-01T14:53:13.705Z,81.75
2023-02-01T14:56:12.847Z,81.61
2023-02-01T14:59:07.552Z,81.52
2023-02-01T15:01:58.532Z,81.01
2023-02-01T15:04:45.977Z,81.42
2023-02-01T15:07:34.175Z,81.18
2023-02-01T15:10:24.598Z,81.46
2023-02-01T15:13:24.724Z,81.84
2023-02-01T15:16:17.094Z,81.76
2023-02-01T15:19:12.674Z,82.17
2023-02-01T15:22:00.020Z,82.37
2023-02-01T15:24:57.380Z,82.32
2023-02-01T15:27:44.106Z,82.30
2023-02-01T15:30:35.728Z,82.56
2023-02-01T15:33:23.052Z,82.71
2023-02-01T15:36:18.768Z,82.82
2023-02-01T15:39:48.927Z,82.14
2023-02-01T15:42:50.759Z,82.39
2023-02-01T15:45:38.158Z,82.46
2023-02-01T15:48:27.116Z,82.77
2023-02-01T15:51:18.625Z,82.86
2023-02-01T15:54:09.704Z,83.02
2023-02-01T15:57:00.038Z,83.37
2023-02-01T15:59:46.832Z,83.77
2023-02-01T16:02:34.034Z,84.16
2023-02-01T16:05:35.002Z,84.46
2023-02-01T16:08:25.153Z,84.78
2023-02-01T16:11:28.729Z,84.87
2023-02-01T16:14:16.612Z,84.56
2023-02-01T16:17:03.561Z,84.47
2023-02-01T16:19:50.984Z,84.44
2023-02-01T16:22:38.941Z,84.81
2023-02-01T16:25:26.313Z,84.73
2023-02-01T16:28:13.743Z,85.18
2023-02-01T16:31:54.296Z,85.88
2023-02-01T16:35:37.964Z,86.34
2023-02-01T16:39:35.486Z,87.11
2023-02-01T16:42:52.109Z,87.37
2023-02-01T16:45:41.801Z,87.30
2023-02-01T16:48:38.180Z,87.25
2023-02-01T16:51:28.202Z,87.11
2023-02-01T16:54:15.884Z,87.09
2023-02-01T16:57:02.955Z,86.86
2023-02-01T16:59:52.099Z,86.64
2023-02-01T17:02:41.203Z,86.93
2023-02-01T17:05:30.169Z,86.82
2023-02-01T17:08:33.793Z,86.60
2023-02-01T17:11:23.039Z,86.68
2023-02-01T17:14:20.271Z,87.03
2023-02-01T17:17:12.047Z,87.01
2023-02-01T17:20:33.276Z,86.75
2023-02-01T17:23:21.350Z,86.62
2023-02-01T17:26:11.775Z,86.49
2023-02-01T17:28:58.922Z,86.36
2023-02-01T17:31:51.713Z,86.02
2023-02-01T17:34:39.501Z,86.21
2023-02-01T17:37:33.416Z,86.25
2023-02-01T17:40:20.566Z,86.44
2023-02-01T17:43:14.717Z,86.79
2023-02-01T17:46:14.895Z,86.69
2023-02-01T17:50:31.356Z,86.99
2023-02-01T17:54:26.925Z,87.24
2023-02-01T17:57:14.955Z,87.43
2023-02-01T18:00:04.377Z,87.65
2023-02-01T18:02:52.222Z,87.78
2023-02-01T18:05:45.372Z,88.15
2023-02-01T18:08:44.730Z,89.13
2023-02-01T18:11:34.147Z,89.88
2023-02-01T18:14:21.979Z,90.71
2023-02-01T18:17:11.238Z,91.10
2023-02-01T18:19:59.486Z,91.53
2023-02-01T18:22:51.552Z,91.43
2023-02-01T18:26:18.607Z,91.27
2023-02-01T18:29:06.992Z,90.91
2023-02-01T18:31:55.707Z,90.68
2023-02-01T18:34:44.496Z,89.79
2023-02-01T18:37:32.195Z,89.44
2023-02-01T18:40:22.897Z,89.42
2023-02-01T18:43:12.539Z,89.50
2023-02-01T18:46:00.003Z,90.77
2023-02-01T18:48:48.334Z,92.16
2023-02-01T18:51:36.474Z,93.05
2023-02-01T18:54:25.456Z,93.86
2023-02-01T18:57:16.498Z,94.05
2023-02-01T19:00:08.692Z,94.18
2023-02-01T19:02:57.115Z,94.02
2023-02-01T19:05:48.593Z,93.94
2023-02-01T19:08:37.429Z,93.62
2023-02-01T19:11:26.328Z,93.32
2023-02-01T19:14:54.878Z,92.93
2023-02-01T19:19:10.506Z,93.19
2023-02-01T19:21:57.377Z,93.23
2023-02-01T19:24:43.982Z,93.06
2023-02-01T19:27:29.992Z,92.72
2023-02-01T19:30:25.512Z,92.59
2023-02-01T19:33:22.832Z,93.08
2023-02-01T19:37:46.784Z,93.63
2023-02-01T19:41:44.990Z,94.37
2023-02-01T19:56:36.053Z,93.29
2023-02-01T19:59:32.665Z,93.34
2023-02-01T20:04:03.862Z,93.22
2023-02-01T20:08:02.829Z,93.51
2023-02-01T20:11:59.531Z,94.03
2023-02-01T20:15:59.738Z,94.52
2023-02-01T20:20:05.679Z,95.27
2023-02-01T20:25:20.423Z,95.34
2023-02-01T20:39:27.502Z,93.52
2023-02-01T20:53:42.180Z,92.71
2023-02-01T21:07:05.498Z,92.14
2023-02-01T21:10:28.389Z,91.69
2023-02-01T21:14:26.395Z,92.12
2023-02-01T21:18:21.583Z,92.22
2023-02-01T21:22:49.878Z,92.13
2023-02-01T21:37:13.457Z,91.27
2023-02-01T21:40:13.461Z,91.50
2023-02-01T21:44:14.536Z,91.45
2023-02-01T21:48:11.465Z,91.52
2023-02-01T21:52:07.135Z,91.76
2023-02-01T22:01:36.095Z,91.64
2023-02-01T22:05:34.534Z,92.20
2023-02-01T22:10:22.664Z,92.16
2023-02-01T22:14:38.134Z,92.38
2023-02-01T22:18:31.135Z,92.56
2023-02-01T22:22:25.545Z,92.42
2023-02-01T22:25:11.893Z,92.78
2023-02-01T22:28:31.815Z,92.62
2023-02-01T22:31:07.667Z,91.82
2023-02-01T22:33:54.145Z,91.55
2023-02-01T22:36:40.850Z,91.29
2023-02-01T22:50:05.831Z,90.16
2023-02-01T22:53:10.637Z,90.09
2023-02-01T23:34:40.852Z,95.78
2023-02-01T23:37:42.202Z,96.91
2023-02-01T23:41:37.424Z,97.91
2023-02-01T23:45:36.938Z,98.86
2023-02-01T23:49:15.643Z,99.68
2023-02-01T23:53:13.386Z,100.00
2023-02-01T23:57:08.394Z,100.00
